Time;durP1;ratioP1;P1;durP2;ratioP2;P2;SDS_P1;SDS_P2;PMS_P1;PMS_P2;Temp;Humidity;BMP_temperature;BMP_pressure;BME280_temperature;BME280_humidity;BME280_pressure;Samples;Min_cycle;Max_cycle;Signal;HPM_P1;HPM_P2
2021/10/08 00:02:13;;;;;;;25.63;9.18;;;6.30;99.90;;;;;;5118983;28;20055;-66
2021/10/08 00:04:39;;;;;;;43.78;9.52;;;6.40;99.90;;;;;;5091112;28;20101;-66
2021/10/08 00:07:05;;;;;;;30.85;8.50;;;6.40;99.90;;;;;;5105391;28;20040;-66
2021/10/08 00:09:31;;;;;;;44.58;9.27;;;6.40;99.90;;;;;;5089030;28;20143;-66
2021/10/08 00:11:57;;;;;;;34.25;8.27;;;6.30;99.90;;;;;;5089116;28;20642;-66
2021/10/08 00:14:24;;;;;;;65.28;9.27;;;6.30;99.90;;;;;;5110879;28;20047;-66
2021/10/08 00:16:50;;;;;;;46.00;9.77;;;6.40;99.90;;;;;;5111200;28;20039;-66
2021/10/08 00:19:16;;;;;;;42.05;9.77;;;6.30;99.90;;;;;;5109261;28;20048;-66
2021/10/08 00:21:42;;;;;;;55.15;9.35;;;6.30;99.90;;;;;;5106943;28;20069;-67
2021/10/08 00:24:07;;;;;;;45.22;8.20;;;6.30;99.90;;;;;;5112669;28;20048;-67
2021/10/08 00:26:33;;;;;;;34.25;8.63;;;6.30;99.90;;;;;;5112589;28;20059;-67
2021/10/08 00:28:59;;;;;;;41.90;8.30;;;6.30;99.90;;;;;;5105774;28;20039;-66
2021/10/08 00:31:25;;;;;;;55.00;9.98;;;6.20;99.90;;;;;;5105132;28;20044;-66
2021/10/08 00:33:51;;;;;;;85.22;10.98;;;6.20;99.90;;;;;;5120391;28;20064;-66
2021/10/08 00:36:17;;;;;;;57.63;10.02;;;6.10;99.90;;;;;;5118489;28;20046;-67
2021/10/08 00:38:43;;;;;;;81.97;10.88;;;6.20;99.90;;;;;;5110001;28;20052;-66
2021/10/08 00:41:10;;;;;;;58.25;10.00;;;6.20;99.90;;;;;;5105109;28;20575;-66
2021/10/08 00:43:36;;;;;;;32.85;8.68;;;6.20;99.90;;;;;;5104603;28;20504;-66
2021/10/08 00:46:02;;;;;;;40.20;9.40;;;6.20;99.90;;;;;;5105517;28;20052;-66
2021/10/08 00:48:28;;;;;;;41.00;9.32;;;6.20;99.90;;;;;;5106902;28;20878;-66
2021/10/08 00:50:54;;;;;;;63.22;9.77;;;6.30;99.90;;;;;;5111995;28;20044;-66
2021/10/08 00:53:20;;;;;;;42.10;9.10;;;6.30;99.90;;;;;;5109875;28;20040;-66
2021/10/08 00:55:51;;;;;;;37.47;8.23;;;6.30;99.90;;;;;;5105652;28;20048;-66
2021/10/08 00:58:19;;;;;;;54.08;9.80;;;6.30;99.90;;;;;;5120586;28;20058;-66
2021/10/08 01:00:47;;;;;;;32.53;9.70;;;6.20;99.90;;;;;;5115746;28;20500;-66
2021/10/08 01:03:13;;;;;;;44.92;9.35;;;6.20;99.90;;;;;;5119499;28;20044;-66
2021/10/08 01:05:40;;;;;;;28.83;8.35;;;6.30;99.90;;;;;;5102980;28;20044;-66
2021/10/08 01:08:07;;;;;;;50.92;9.30;;;6.30;99.90;;;;;;5104415;28;20047;-66
2021/10/08 01:10:37;;;;;;;47.50;9.60;;;6.40;99.90;;;;;;5104913;28;20050;-66
2021/10/08 01:13:05;;;;;;;39.47;8.73;;;6.40;99.90;;;;;;5105264;28;20522;-66
2021/10/08 01:15:31;;;;;;;60.25;10.50;;;6.30;99.90;;;;;;5114460;28;20044;-67
2021/10/08 01:17:57;;;;;;;61.78;10.75;;;6.30;99.90;;;;;;5107117;28;20066;-66
2021/10/08 01:20:24;;;;;;;68.47;10.25;;;6.30;99.90;;;;;;5111474;28;20043;-66
2021/10/08 01:22:53;;;;;;;65.80;9.93;;;6.30;99.90;;;;;;5105979;28;20040;-66
2021/10/08 01:25:19;;;;;;;64.13;10.02;;;6.40;99.90;;;;;;5105485;28;20085;-66
2021/10/08 01:27:45;;;;;;;70.03;10.68;;;6.40;99.90;;;;;;5101693;28;20048;-67
2021/10/08 01:30:11;;;;;;;79.93;10.88;;;6.40;99.90;;;;;;5114930;28;20044;-66
2021/10/08 01:32:37;;;;;;;92.90;11.25;;;6.40;99.90;;;;;;5112770;28;20052;-66
2021/10/08 01:35:04;;;;;;;80.90;10.57;;;6.40;99.90;;;;;;5110605;28;20514;-66
2021/10/08 01:37:30;;;;;;;63.33;10.15;;;6.40;99.90;;;;;;5103704;28;20040;-66
2021/10/08 01:39:56;;;;;;;69.32;9.90;;;6.40;99.90;;;;;;5107108;28;20047;-67
2021/10/08 01:42:21;;;;;;;55.63;9.32;;;6.40;99.90;;;;;;5106612;28;20082;-66
2021/10/08 01:44:47;;;;;;;61.45;9.05;;;6.40;99.90;;;;;;5104004;28;20063;-66
2021/10/08 01:47:13;;;;;;;48.30;9.20;;;6.30;99.90;;;;;;5107702;28;20048;-66
2021/10/08 01:49:39;;;;;;;37.05;9.50;;;6.30;99.90;;;;;;5112493;28;20089;-66
2021/10/08 01:52:05;;;;;;;41.05;9.63;;;6.30;99.90;;;;;;5104006;28;20044;-66
2021/10/08 01:54:31;;;;;;;42.92;8.95;;;6.30;99.90;;;;;;5111916;28;20526;-66
2021/10/08 01:56:59;;;;;;;46.08;8.85;;;6.30;99.90;;;;;;5106073;28;20048;-66
2021/10/08 01:59:25;;;;;;;66.45;9.48;;;6.30;99.90;;;;;;5106618;28;20132;-66
2021/10/08 02:01:50;;;;;;;35.50;8.77;;;6.20;99.90;;;;;;5107757;28;20044;-66
2021/10/08 02:04:16;;;;;;;46.05;9.68;;;6.20;99.90;;;;;;5103901;28;20104;-67
2021/10/08 02:06:42;;;;;;;47.67;9.73;;;6.20;99.90;;;;;;5082096;28;20039;-66
2021/10/08 02:09:08;;;;;;;55.42;9.80;;;6.10;99.90;;;;;;5103379;28;20052;-66
2021/10/08 02:11:34;;;;;;;45.92;9.35;;;6.10;99.90;;;;;;5103676;28;20079;-66
2021/10/08 02:14:00;;;;;;;28.30;8.40;;;6.00;99.90;;;;;;5112917;28;20048;-66
2021/10/08 02:16:26;;;;;;;31.52;7.85;;;6.00;99.90;;;;;;5107138;28;20040;-67
2021/10/08 02:18:54;;;;;;;30.13;8.48;;;6.00;99.90;;;;;;5103570;28;20036;-66
2021/10/08 02:21:21;;;;;;;34.47;8.45;;;6.00;99.90;;;;;;5103763;28;20044;-66
2021/10/08 02:23:47;;;;;;;18.92;7.95;;;5.90;99.90;;;;;;5116726;28;20044;-66
2021/10/08 02:26:13;;;;;;;17.75;7.10;;;5.90;99.90;;;;;;5089344;28;20067;-66
2021/10/08 02:28:40;;;;;;;20.45;7.45;;;5.80;99.90;;;;;;5112576;28;20083;-66
2021/10/08 02:31:06;;;;;;;20.05;7.75;;;5.80;99.90;;;;;;5110899;28;20153;-66
2021/10/08 02:33:34;;;;;;;15.57;7.50;;;5.70;99.90;;;;;;5108109;28;20059;-66
2021/10/08 02:36:04;;;;;;;13.15;7.30;;;5.70;99.90;;;;;;5107995;28;20048;-66
2021/10/08 02:38:30;;;;;;;13.50;7.30;;;5.60;99.90;;;;;;5116186;28;20058;-66
2021/10/08 02:40:56;;;;;;;9.50;7.18;;;5.60;99.90;;;;;;5105039;28;20048;-66
2021/10/08 02:43:23;;;;;;;9.13;6.80;;;5.60;99.90;;;;;;5124306;28;20103;-66
2021/10/08 02:45:49;;;;;;;13.18;7.82;;;5.70;99.90;;;;;;5118613;28;20562;-66
2021/10/08 02:48:15;;;;;;;9.10;6.90;;;5.70;99.90;;;;;;5118244;28;20047;-66
2021/10/08 02:50:41;;;;;;;18.92;7.03;;;5.70;99.90;;;;;;5108951;28;20062;-66
2021/10/08 02:53:07;;;;;;;19.55;7.05;;;5.70;99.90;;;;;;5108908;28;20036;-66
2021/10/08 02:55:33;;;;;;;26.92;7.65;;;5.70;99.90;;;;;;5111414;28;20035;-66
2021/10/08 02:57:59;;;;;;;16.60;7.45;;;5.70;99.90;;;;;;5090797;28;20080;-66
2021/10/08 03:00:25;;;;;;;16.67;6.93;;;5.60;99.90;;;;;;5107238;28;20492;-66
2021/10/08 03:02:50;;;;;;;25.13;7.35;;;5.70;99.90;;;;;;5107951;28;20059;-66
2021/10/08 03:05:16;;;;;;;25.33;7.68;;;5.70;99.90;;;;;;5105913;28;20103;-66
2021/10/08 03:07:42;;;;;;;14.60;6.85;;;5.70;99.90;;;;;;5113989;28;20067;-66
2021/10/08 03:10:10;;;;;;;24.27;7.38;;;5.60;99.90;;;;;;5106735;28;20054;-66
2021/10/08 03:12:36;;;;;;;31.15;8.05;;;5.70;99.90;;;;;;5114428;28;20479;-66
2021/10/08 03:15:04;;;;;;;37.53;8.38;;;5.70;99.90;;;;;;5107765;28;20100;-66
2021/10/08 03:17:30;;;;;;;41.38;8.30;;;5.70;99.90;;;;;;5099870;28;20099;-66
2021/10/08 03:19:56;;;;;;;45.38;9.32;;;5.70;99.90;;;;;;5106642;28;20108;-66
2021/10/08 03:22:22;;;;;;;41.28;9.18;;;5.60;99.90;;;;;;5107547;28;20040;-66
2021/10/08 03:24:48;;;;;;;49.40;9.10;;;5.60;99.90;;;;;;5118601;28;20054;-66
2021/10/08 03:27:14;;;;;;;56.83;9.10;;;5.60;99.90;;;;;;5112901;28;20135;-66
2021/10/08 03:29:40;;;;;;;39.40;9.90;;;5.50;99.90;;;;;;5118336;28;20055;-66
2021/10/08 03:32:06;;;;;;;25.80;8.10;;;5.50;99.90;;;;;;5114646;28;20480;-66
2021/10/08 03:34:31;;;;;;;76.07;9.85;;;5.40;99.90;;;;;;5107335;28;20044;-66
2021/10/08 03:37:03;;;;;;;65.05;10.82;;;5.40;99.90;;;;;;5099209;28;20044;-66
2021/10/08 03:39:33;;;;;;;51.92;8.82;;;5.40;99.90;;;;;;5117037;28;20048;-66
2021/10/08 03:41:59;;;;;;;47.77;8.77;;;5.40;99.90;;;;;;5118394;28;20043;-66
2021/10/08 03:44:28;;;;;;;80.25;9.63;;;5.40;99.90;;;;;;5118171;28;20335;-66
2021/10/08 03:46:56;;;;;;;52.70;9.05;;;5.30;99.90;;;;;;5108300;28;20051;-66
2021/10/08 03:49:23;;;;;;;78.90;9.95;;;5.30;99.90;;;;;;5107603;28;20484;-66
2021/10/08 03:51:50;;;;;;;32.58;7.75;;;5.30;99.90;;;;;;5108459;28;20040;-66
2021/10/08 03:54:17;;;;;;;36.47;8.32;;;5.30;99.90;;;;;;5088853;28;20040;-66
2021/10/08 03:56:45;;;;;;;23.95;8.07;;;5.30;99.90;;;;;;5106772;28;20051;-66
2021/10/08 03:59:11;;;;;;;14.65;7.28;;;5.30;99.90;;;;;;5092715;28;20058;-66
2021/10/08 04:01:37;;;;;;;31.05;7.93;;;5.30;99.90;;;;;;5109670;28;20460;-66
2021/10/08 04:04:05;;;;;;;19.13;8.10;;;5.30;99.90;;;;;;5110936;28;20518;-66
2021/10/08 04:06:32;;;;;;;47.97;9.15;;;5.40;99.90;;;;;;5107574;28;20103;-66
2021/10/08 04:09:03;;;;;;;43.42;8.63;;;5.40;99.90;;;;;;5109919;28;20122;-66
2021/10/08 04:11:29;;;;;;;33.95;8.40;;;5.40;99.90;;;;;;5113064;28;20071;-66
2021/10/08 04:13:56;;;;;;;45.50;9.23;;;5.40;99.90;;;;;;5108867;28;20097;-66
2021/10/08 04:16:22;;;;;;;34.22;7.97;;;5.40;99.90;;;;;;5111797;28;20078;-66
2021/10/08 04:18:47;;;;;;;37.55;8.13;;;5.40;99.90;;;;;;5106090;28;20048;-66
2021/10/08 04:21:14;;;;;;;31.20;8.00;;;5.40;99.90;;;;;;5113163;28;20127;-66
2021/10/08 04:23:39;;;;;;;47.78;9.13;;;5.50;99.90;;;;;;5115037;28;20086;-66
2021/10/08 04:26:05;;;;;;;42.72;8.85;;;5.40;99.90;;;;;;5106626;28;20048;-66
2021/10/08 04:28:32;;;;;;;57.92;9.13;;;5.40;99.90;;;;;;5114460;28;20115;-66
2021/10/08 04:30:58;;;;;;;37.63;8.57;;;5.30;99.90;;;;;;5090907;28;20047;-66
2021/10/08 04:33:26;;;;;;;40.60;9.07;;;5.30;99.90;;;;;;5106038;28;20042;-66
2021/10/08 04:35:56;;;;;;;28.58;8.60;;;5.40;99.90;;;;;;5115640;28;20040;-66
2021/10/08 04:38:22;;;;;;;28.27;8.70;;;5.40;99.90;;;;;;5114061;28;20063;-67
2021/10/08 04:40:49;;;;;;;41.28;8.85;;;5.40;99.90;;;;;;5105232;28;20036;-67
2021/10/08 04:43:15;;;;;;;57.60;9.50;;;5.40;99.90;;;;;;5091805;28;20400;-66
2021/10/08 04:45:40;;;;;;;74.05;11.13;;;5.40;99.90;;;;;;5108600;28;20223;-67
2021/10/08 04:48:06;;;;;;;37.47;8.90;;;5.50;99.90;;;;;;5111996;28;20051;-66
2021/10/08 04:50:32;;;;;;;42.90;9.90;;;5.40;99.90;;;;;;5111602;28;20056;-66
2021/10/08 04:52:58;;;;;;;44.67;9.52;;;5.50;99.90;;;;;;5087977;28;20048;-67
2021/10/08 04:55:24;;;;;;;32.83;8.88;;;5.50;99.90;;;;;;5104585;28;20483;-67
2021/10/08 04:57:49;;;;;;;66.50;10.65;;;5.50;99.90;;;;;;5104580;28;20044;-67
2021/10/08 05:00:15;;;;;;;84.80;11.18;;;5.50;99.90;;;;;;5104469;28;20047;-68
2021/10/08 05:02:41;;;;;;;54.22;9.57;;;5.50;99.90;;;;;;5109260;28;20062;-67
2021/10/08 05:05:07;;;;;;;72.95;11.15;;;5.40;99.90;;;;;;5105891;28;20075;-67
2021/10/08 05:07:33;;;;;;;83.05;11.27;;;5.40;99.90;;;;;;5072630;28;20048;-66
2021/10/08 05:09:59;;;;;;;93.82;12.60;;;5.40;99.90;;;;;;5108919;28;20142;-66
2021/10/08 05:12:28;;;;;;;90.45;11.77;;;5.30;99.90;;;;;;5106359;28;20031;-68
2021/10/08 05:14:54;;;;;;;39.75;10.40;;;5.30;99.90;;;;;;5062217;28;20047;-67
2021/10/08 05:17:19;;;;;;;91.55;12.82;;;5.30;99.90;;;;;;5057195;28;20097;-68
2021/10/08 05:19:45;;;;;;;58.10;11.68;;;5.30;99.90;;;;;;5049325;28;20057;-68
2021/10/08 05:22:11;;;;;;;61.83;11.35;;;5.30;99.90;;;;;;5070947;28;20052;-68
2021/10/08 05:24:37;;;;;;;102.78;12.68;;;5.40;99.90;;;;;;5069661;28;20052;-68
2021/10/08 05:27:03;;;;;;;109.63;13.43;;;5.40;99.90;;;;;;5059117;28;20048;-68
2021/10/08 05:29:29;;;;;;;111.90;12.88;;;5.40;99.90;;;;;;5068059;28;20056;-68
2021/10/08 05:31:54;;;;;;;100.35;13.15;;;5.30;99.90;;;;;;5070481;28;20063;-67
2021/10/08 05:34:20;;;;;;;86.60;12.80;;;5.30;99.90;;;;;;5070803;28;20037;-68
2021/10/08 05:36:49;;;;;;;42.10;11.35;;;5.30;99.90;;;;;;5056178;28;20041;-68
2021/10/08 05:39:16;;;;;;;93.60;12.75;;;5.40;99.90;;;;;;5068681;28;20385;-68
2021/10/08 05:41:42;;;;;;;69.43;12.23;;;5.30;99.90;;;;;;5094661;28;20139;-67
2021/10/08 05:44:07;;;;;;;58.00;10.82;;;5.30;99.90;;;;;;5078642;28;20076;-67
2021/10/08 05:46:33;;;;;;;55.58;11.10;;;5.30;99.90;;;;;;5070561;28;20148;-69
2021/10/08 05:48:59;;;;;;;61.45;11.57;;;5.30;99.90;;;;;;5081441;28;20041;-68
2021/10/08 05:51:24;;;;;;;52.92;11.52;;;5.40;99.90;;;;;;5050801;28;20044;-68
2021/10/08 05:53:50;;;;;;;71.47;11.60;;;5.40;99.90;;;;;;5076129;28;20040;-67
2021/10/08 05:56:16;;;;;;;78.47;13.10;;;5.50;99.90;;;;;;5067015;28;20055;-68
2021/10/08 05:58:42;;;;;;;64.60;12.63;;;5.40;99.90;;;;;;5077934;28;20454;-68
2021/10/08 06:01:07;;;;;;;42.38;11.25;;;5.40;99.90;;;;;;5072131;28;20044;-68
2021/10/08 06:03:33;;;;;;;34.67;9.98;;;5.40;99.90;;;;;;5077735;28;20136;-68
2021/10/08 06:05:59;;;;;;;33.90;9.20;;;5.50;99.90;;;;;;5065091;28;20048;-67
2021/10/08 06:08:24;;;;;;;44.92;11.18;;;5.50;99.90;;;;;;5060766;28;20179;-68
2021/10/08 06:10:50;;;;;;;34.50;9.85;;;5.50;99.90;;;;;;5058988;28;20128;-67
2021/10/08 06:13:16;;;;;;;44.22;10.55;;;5.50;99.90;;;;;;5083085;28;20063;-68
2021/10/08 06:15:42;;;;;;;38.60;10.40;;;5.50;99.90;;;;;;5065280;28;20082;-68
2021/10/08 06:18:08;;;;;;;35.53;10.38;;;5.50;99.90;;;;;;5092988;28;20052;-68
2021/10/08 06:20:33;;;;;;;41.53;9.77;;;5.40;99.90;;;;;;5084175;28;20112;-68
2021/10/08 06:22:59;;;;;;;39.38;10.43;;;5.40;99.90;;;;;;5084261;28;20243;-71
2021/10/08 06:25:25;;;;;;;38.50;10.57;;;5.40;99.90;;;;;;5088528;28;20147;-68
2021/10/08 06:27:51;;;;;;;41.63;9.88;;;5.40;99.90;;;;;;5081236;28;20056;-67
2021/10/08 06:30:18;;;;;;;48.15;10.85;;;5.40;99.90;;;;;;5084239;28;20058;-67
2021/10/08 06:32:44;;;;;;;38.83;9.73;;;5.40;99.90;;;;;;5071841;28;20485;-67
2021/10/08 06:35:10;;;;;;;35.45;10.50;;;5.40;99.90;;;;;;5079018;28;20139;-67
2021/10/08 06:37:35;;;;;;;30.33;10.13;;;5.40;99.90;;;;;;5087841;28;20046;-67
2021/10/08 06:40:01;;;;;;;32.08;10.07;;;5.40;99.90;;;;;;5088108;28;20047;-67
2021/10/08 06:42:27;;;;;;;25.95;9.50;;;5.40;99.90;;;;;;5088498;28;20070;-67
2021/10/08 06:44:55;;;;;;;52.05;11.90;;;5.50;99.90;;;;;;5077283;28;20198;-67
2021/10/08 06:47:20;;;;;;;56.67;11.45;;;5.50;99.90;;;;;;5073478;28;20059;-67
2021/10/08 06:49:46;;;;;;;21.42;9.40;;;5.60;99.90;;;;;;5072118;28;20107;-67
2021/10/08 06:52:12;;;;;;;31.58;9.65;;;5.60;99.90;;;;;;5068640;28;20137;-67
2021/10/08 06:54:38;;;;;;;26.08;11.00;;;5.60;99.90;;;;;;5074674;28;20036;-68
2021/10/08 06:57:04;;;;;;;46.45;10.52;;;5.80;99.90;;;;;;5080178;28;20056;-62
2021/10/08 06:59:29;;;;;;;44.38;10.50;;;5.70;99.90;;;;;;5079426;28;20060;-62
2021/10/08 07:01:55;;;;;;;43.45;11.25;;;5.80;99.90;;;;;;5067428;28;20051;-62
2021/10/08 07:04:21;;;;;;;28.90;10.48;;;5.90;99.90;;;;;;5079280;28;20530;-62
2021/10/08 07:06:47;;;;;;;24.60;9.48;;;5.90;99.90;;;;;;5036407;28;20053;-62
2021/10/08 07:09:13;;;;;;;26.38;9.65;;;6.00;99.90;;;;;;5075698;28;20051;-62
2021/10/08 07:11:39;;;;;;;38.20;10.40;;;6.00;99.90;;;;;;5085932;28;20047;-62
2021/10/08 07:14:05;;;;;;;27.92;10.00;;;6.10;99.90;;;;;;5099005;28;20047;-62
2021/10/08 07:16:31;;;;;;;33.63;11.13;;;6.10;99.90;;;;;;5106927;27;20138;-62
2021/10/08 07:19:04;;;;;;;41.13;12.30;;;6.20;99.90;;;;;;5107878;28;20067;-62
2021/10/08 07:21:30;;;;;;;60.95;12.88;;;6.20;99.90;;;;;;5094374;27;20039;-63
2021/10/08 07:23:56;;;;;;;91.70;12.57;;;6.30;99.90;;;;;;5105819;27;20131;-62
2021/10/08 07:26:22;;;;;;;62.20;12.43;;;6.30;99.90;;;;;;5085029;28;20055;-62
2021/10/08 07:28:48;;;;;;;84.93;13.93;;;6.40;99.90;;;;;;5093606;28;20463;-63
2021/10/08 07:31:14;;;;;;;67.30;12.27;;;6.30;99.90;;;;;;5078634;28;20052;-62
2021/10/08 07:33:41;;;;;;;32.90;11.48;;;6.30;99.90;;;;;;5090377;28;20048;-62
2021/10/08 07:36:07;;;;;;;27.48;12.55;;;6.40;99.90;;;;;;5077236;28;20131;-62
2021/10/08 07:38:33;;;;;;;71.95;13.95;;;6.50;99.90;;;;;;5095736;28;20040;-62
2021/10/08 07:40:59;;;;;;;35.33;12.10;;;6.60;99.90;;;;;;5057520;28;20505;-62
2021/10/08 07:43:25;;;;;;;37.13;13.00;;;6.60;99.90;;;;;;5066188;28;20053;-62
2021/10/08 07:45:50;;;;;;;105.82;14.55;;;6.70;99.90;;;;;;5065767;28;20501;-62
2021/10/08 07:48:16;;;;;;;127.65;16.35;;;6.80;99.90;;;;;;5087735;28;20059;-62
2021/10/08 07:50:42;;;;;;;46.90;13.25;;;6.80;99.90;;;;;;5065781;28;20048;-63
2021/10/08 07:53:07;;;;;;;27.27;12.98;;;6.80;99.90;;;;;;5071225;28;20152;-63
2021/10/08 07:55:33;;;;;;;48.80;12.68;;;6.90;99.90;;;;;;5076231;28;20047;-62
2021/10/08 07:57:59;;;;;;;54.45;14.05;;;7.00;99.90;;;;;;5077584;28;20036;-62
2021/10/08 08:00:25;;;;;;;86.00;14.93;;;7.10;99.90;;;;;;5068398;28;20090;-62
2021/10/08 08:02:51;;;;;;;51.42;14.00;;;7.10;99.90;;;;;;5070524;28;20161;-63
2021/10/08 08:05:16;;;;;;;53.03;14.30;;;7.20;99.90;;;;;;5065498;28;20056;-63
2021/10/08 08:07:42;;;;;;;114.43;17.83;;;7.30;99.90;;;;;;5068876;28;20052;-62
2021/10/08 08:10:09;;;;;;;56.83;15.02;;;7.30;99.90;;;;;;5074434;28;20534;-62
2021/10/08 08:12:35;;;;;;;79.40;16.90;;;7.40;99.90;;;;;;5056774;28;20602;-62
2021/10/08 08:15:03;;;;;;;87.10;18.05;;;7.50;99.90;;;;;;5069927;28;20059;-62
2021/10/08 08:17:29;;;;;;;86.65;17.65;;;7.60;99.90;;;;;;5072920;28;20079;-62
2021/10/08 08:19:55;;;;;;;75.30;15.88;;;7.70;99.90;;;;;;5078172;28;20044;-62
2021/10/08 08:22:20;;;;;;;127.43;18.98;;;7.80;99.90;;;;;;5061942;28;20072;-62
2021/10/08 08:24:46;;;;;;;124.65;18.67;;;7.80;99.90;;;;;;5076199;28;20219;-63
2021/10/08 08:27:12;;;;;;;54.92;17.23;;;7.90;99.90;;;;;;5059822;28;20052;-62
2021/10/08 08:29:38;;;;;;;41.08;15.30;;;8.00;99.90;;;;;;5076818;28;20044;-62
2021/10/08 08:32:04;;;;;;;36.30;16.70;;;8.20;99.90;;;;;;5050438;28;20052;-62
2021/10/08 08:34:29;;;;;;;37.83;16.48;;;8.20;99.90;;;;;;5073523;28;20043;-62
2021/10/08 08:36:55;;;;;;;55.42;16.23;;;8.40;99.90;;;;;;5057696;28;20098;-63
2021/10/08 08:39:21;;;;;;;33.65;15.43;;;8.40;99.90;;;;;;5074617;28;20054;-62
2021/10/08 08:41:49;;;;;;;30.23;16.50;;;8.50;99.90;;;;;;5077985;28;20225;-62
2021/10/08 08:44:15;;;;;;;36.60;16.77;;;8.60;99.90;;;;;;5078708;28;20048;-62
2021/10/08 08:46:41;;;;;;;47.78;19.20;;;8.70;99.90;;;;;;5070594;28;20054;-62
2021/10/08 08:49:07;;;;;;;48.20;20.08;;;8.70;99.90;;;;;;5075818;28;20260;-62
2021/10/08 08:51:33;;;;;;;25.02;15.40;;;8.80;99.90;;;;;;5065134;28;20083;-62
2021/10/08 08:54:06;;;;;;;69.57;20.50;;;8.90;99.90;;;;;;5056316;28;20048;-62
2021/10/08 08:56:32;;;;;;;53.03;19.25;;;9.00;99.90;;;;;;5085320;28;20105;-62
2021/10/08 08:59:05;;;;;;;45.28;19.27;;;9.10;99.90;;;;;;5054261;28;20048;-63
2021/10/08 09:01:31;;;;;;;46.65;20.73;;;9.10;99.90;;;;;;5081344;28;20845;-62
2021/10/08 09:04:05;;;;;;;50.05;24.27;;;9.30;99.90;;;;;;5066491;28;20048;-63
2021/10/08 09:06:38;;;;;;;34.80;19.92;;;9.40;99.90;;;;;;5064993;28;20230;-63
2021/10/08 09:09:17;;;;;;;59.47;22.98;;;9.50;99.90;;;;;;5068879;28;20052;-63
2021/10/08 09:11:44;;;;;;;33.78;21.17;;;9.60;99.90;;;;;;5073038;28;20047;-63
2021/10/08 09:14:22;;;;;;;46.88;24.75;;;9.70;99.90;;;;;;5076545;28;20075;-62
2021/10/08 09:17:16;;;;;;;42.42;24.00;;;9.70;99.90;;;;;;5061592;28;20049;-62
2021/10/08 09:20:00;;;;;;;47.38;24.77;;;9.90;99.90;;;;;;5092117;28;20071;-62
2021/10/08 09:22:40;;;;;;;48.63;24.42;;;10.00;99.90;;;;;;5070289;28;20075;-62
2021/10/08 09:25:12;;;;;;;33.05;19.88;;;10.20;99.90;;;;;;5079274;28;20049;-63
2021/10/08 09:27:39;;;;;;;29.25;19.90;;;10.20;99.90;;;;;;5058593;28;20048;-62
2021/10/08 09:30:06;;;;;;;48.13;25.67;;;10.40;99.90;;;;;;5084670;28;20055;-62
2021/10/08 09:32:39;;;;;;;51.67;26.73;;;10.50;99.90;;;;;;5062181;28;20040;-62
2021/10/08 09:35:07;;;;;;;53.22;28.77;;;10.50;99.90;;;;;;5086771;28;20170;-63
2021/10/08 09:37:34;;;;;;;45.90;26.30;;;10.60;99.90;;;;;;5061347;28;20056;-62
2021/10/08 09:40:00;;;;;;;55.75;29.77;;;10.60;99.90;;;;;;5077454;28;20054;-62
2021/10/08 09:42:39;;;;;;;52.45;29.63;;;10.60;99.90;;;;;;5055553;28;20055;-63
2021/10/08 09:45:05;;;;;;;55.40;30.67;;;10.60;99.90;;;;;;5079072;28;20063;-63
2021/10/08 09:47:32;;;;;;;55.10;30.95;;;10.60;99.90;;;;;;5089561;28;20043;-62
2021/10/08 09:50:12;;;;;;;61.05;32.83;;;10.70;99.90;;;;;;5099291;28;20074;-62
2021/10/08 09:52:38;;;;;;;65.88;35.05;;;10.80;99.90;;;;;;5080566;28;20054;-62
2021/10/08 09:55:07;;;;;;;57.72;33.55;;;10.90;99.90;;;;;;5076138;28;20043;-63
2021/10/08 09:57:48;;;;;;;60.10;34.20;;;11.10;99.90;;;;;;5103818;28;20587;-63
2021/10/08 10:00:43;;;;;;;52.95;31.70;;;11.30;99.90;;;;;;5095543;28;20075;-62
2021/10/08 10:03:14;;;;;;;48.28;30.58;;;11.40;99.90;;;;;;5086072;28;20657;-63
2021/10/08 10:05:40;;;;;;;64.88;36.95;;;11.50;99.90;;;;;;5082952;28;20048;-62
2021/10/08 10:08:07;;;;;;;45.72;28.45;;;11.60;99.90;;;;;;5080916;28;20052;-62
2021/10/08 10:10:35;;;;;;;42.60;29.25;;;11.70;99.90;;;;;;5087963;28;20040;-63
2021/10/08 10:13:04;;;;;;;36.63;26.45;;;11.80;99.90;;;;;;5096997;28;20048;-62
2021/10/08 10:15:31;;;;;;;35.00;24.50;;;12.00;99.90;;;;;;5088956;28;20036;-63
2021/10/08 10:17:57;;;;;;;36.13;26.38;;;12.10;99.90;;;;;;5090106;28;20050;-62
2021/10/08 10:20:24;;;;;;;29.30;22.60;;;12.20;99.90;;;;;;5097041;28;20048;-62
2021/10/08 10:22:52;;;;;;;26.25;21.13;;;12.30;99.90;;;;;;5085120;28;20036;-63
2021/10/08 10:25:18;;;;;;;24.00;19.50;;;12.50;99.90;;;;;;5098372;28;20044;-63
2021/10/08 10:27:44;;;;;;;24.10;19.35;;;12.60;99.90;;;;;;5099062;28;20059;-61
2021/10/08 10:30:11;;;;;;;22.58;18.20;;;12.70;99.90;;;;;;5097664;28;20522;-61
2021/10/08 10:32:42;;;;;;;24.17;17.83;;;12.90;99.90;;;;;;5089877;28;20039;-61
2021/10/08 10:35:38;;;;;;;18.63;15.40;;;12.90;99.90;;;;;;5098289;28;20057;-61
2021/10/08 10:38:23;;;;;;;20.33;16.30;;;13.10;99.90;;;;;;5087530;28;20048;-60
2021/10/08 10:41:09;;;;;;;19.25;15.60;;;13.20;99.90;;;;;;5089098;28;20044;-60
2021/10/08 10:43:47;;;;;;;15.80;12.90;;;13.30;99.90;;;;;;5092497;28;20056;-60
2021/10/08 10:46:43;;;;;;;15.93;12.85;;;13.40;99.90;;;;;;5096914;28;20670;-61
2021/10/08 10:52:01;;;;;;;16.85;13.35;;;13.70;99.90;;;;;;5102501;28;20048;-61
2021/10/08 10:54:43;;;;;;;16.73;13.70;;;13.80;99.90;;;;;;5103636;28;20071;-61
2021/10/08 10:57:32;;;;;;;16.90;13.13;;;13.90;99.90;;;;;;5104029;28;20400;-62
2021/10/08 11:00:30;;;;;;;17.87;14.13;;;14.10;99.90;;;;;;5100765;28;20574;-61
2021/10/08 11:03:15;;;;;;;18.45;14.55;;;14.20;99.90;;;;;;5085284;28;20051;-61
2021/10/08 11:06:04;;;;;;;16.08;13.13;;;14.30;99.90;;;;;;5091661;28;20060;-62
2021/10/08 11:08:30;;;;;;;14.63;12.57;;;14.40;99.90;;;;;;5096577;27;20048;-61
2021/10/08 11:10:58;;;;;;;14.10;11.70;;;14.50;99.90;;;;;;5090308;28;20504;-61
2021/10/08 11:13:35;;;;;;;18.23;13.57;;;14.50;99.90;;;;;;5096025;28;20504;-61
2021/10/08 11:16:06;;;;;;;15.70;13.18;;;14.60;99.90;;;;;;5093052;28;20048;-61
2021/10/08 11:18:40;;;;;;;16.45;13.07;;;14.70;99.90;;;;;;5112376;27;20032;-61
2021/10/08 11:21:07;;;;;;;15.35;12.75;;;14.70;99.90;;;;;;5090343;27;20076;-61
2021/10/08 11:23:37;;;;;;;20.45;12.43;;;14.80;99.90;;;;;;5098040;28;20054;-61
2021/10/08 11:26:15;;;;;;;11.68;10.48;;;14.90;99.90;;;;;;5095324;27;20130;-61
2021/10/08 11:28:43;;;;;;;11.77;9.10;;;15.00;99.90;;;;;;5095586;28;20063;-61
2021/10/08 11:31:14;;;;;;;12.65;10.55;;;15.10;99.90;;;;;;5092609;28;20043;-61
2021/10/08 11:33:43;;;;;;;14.43;12.63;;;15.20;99.90;;;;;;5096283;28;20049;-61
2021/10/08 11:36:21;;;;;;;13.82;11.55;;;15.20;99.90;;;;;;5091540;28;20575;-61
2021/10/08 11:38:49;;;;;;;9.13;7.78;;;15.30;99.90;;;;;;5096364;28;20284;-61
2021/10/08 11:41:24;;;;;;;11.65;10.45;;;15.40;99.90;;;;;;5088683;28;20048;-61
2021/10/08 11:44:10;;;;;;;12.52;10.82;;;15.50;99.90;;;;;;5096258;28;20074;-61
2021/10/08 11:46:52;;;;;;;12.77;10.02;;;15.50;99.90;;;;;;5081921;28;20044;-61
2021/10/08 11:51:57;;;;;;;10.65;8.98;;;15.70;99.90;;;;;;5090851;28;20269;-61
2021/10/08 11:54:24;;;;;;;11.95;9.40;;;15.80;99.90;;;;;;5091093;28;20046;-61
2021/10/08 11:57:04;;;;;;;10.75;9.35;;;15.90;99.90;;;;;;5090751;28;20079;-61
2021/10/08 11:59:31;;;;;;;12.23;9.88;;;16.20;99.90;;;;;;5097543;28;20072;-61
2021/10/08 12:02:14;;;;;;;11.82;10.60;;;16.20;99.90;;;;;;5088694;28;20036;-61
2021/10/08 12:05:01;;;;;;;13.02;10.98;;;16.30;99.90;;;;;;5098710;28;20048;-61
2021/10/08 12:07:37;;;;;;;11.20;9.95;;;16.50;99.90;;;;;;5085296;28;20447;-61
2021/10/08 12:10:12;;;;;;;11.60;10.02;;;16.60;99.90;;;;;;5099557;28;20576;-61
2021/10/08 12:12:58;;;;;;;11.50;10.30;;;17.00;99.90;;;;;;5104368;28;20052;-61
2021/10/08 12:15:32;;;;;;;13.40;11.55;;;17.10;99.90;;;;;;5080778;28;20064;-61
2021/10/08 12:18:00;;;;;;;11.65;9.13;;;17.20;99.90;;;;;;5086120;27;20051;-61
2021/10/08 12:20:32;;;;;;;11.70;9.43;;;17.30;99.90;;;;;;5092971;28;20352;-61
2021/10/08 12:23:14;;;;;;;10.73;8.85;;;17.40;99.90;;;;;;5078817;28;20567;-61
2021/10/08 12:25:41;;;;;;;12.13;9.98;;;17.70;99.90;;;;;;5100900;28;20052;-61
2021/10/08 12:28:11;;;;;;;11.75;9.65;;;17.80;99.90;;;;;;5082608;28;20161;-61
2021/10/08 12:30:57;;;;;;;10.95;9.40;;;18.10;99.90;;;;;;5097854;28;20059;-61
2021/10/08 12:33:30;;;;;;;11.85;10.07;;;18.20;99.90;;;;;;5083351;28;20054;-62
2021/10/08 12:36:17;;;;;;;11.75;10.57;;;18.30;99.90;;;;;;5104579;28;20051;-63
2021/10/08 12:38:52;;;;;;;10.23;9.20;;;18.40;99.90;;;;;;5109184;27;20052;-62
2021/10/08 12:41:37;;;;;;;10.68;9.30;;;18.40;99.90;;;;;;5080457;28;20458;-62
2021/10/08 12:44:10;;;;;;;9.98;8.73;;;18.50;99.90;;;;;;5091960;28;20059;-62
2021/10/08 12:46:37;;;;;;;9.02;7.88;;;18.60;99.90;;;;;;5073565;28;20059;-62
2021/10/08 12:49:06;;;;;;;10.18;8.65;;;18.80;99.90;;;;;;5071410;28;20048;-62
2021/10/08 12:51:43;;;;;;;10.23;8.05;;;18.70;99.90;;;;;;5071896;28;20051;-62